< < Back
Terminal Aerodrome Forecast


Current Version              Previous Versions:   1  2  3  4  5  6  7  8  9  

Terminal Aerodrome Forecast

469
FTUS44 KOHX 251100
TAFBNA
TAF
KBNA 251140Z 2512/2612 00000KT P6SM FEW200
     FM251400 VRB05KT P6SM SCT250
     FM260000 00000KT P6SM SCT250=



Latest METAR

982
SAUS70 KWBC 251456
MTRBNA
METAR KBNA 251453Z 00000KT 10SM FEW035 BKN200 BKN250 25/15 A3009 RMK AO2
SLP182 T02500150 50007


USA.gov is the U.S. government's official web portal to all federal, state and local government web resources and services.